Time;durP1;ratioP1;P1;durP2;ratioP2;P2;SDS_P1;SDS_P2;PMS_P1;PMS_P2;Temp;Humidity;BMP_temperature;BMP_pressure;BME280_temperature;BME280_humidity;BME280_pressure;Samples;Min_cycle;Max_cycle;Signal;HPM_P1;HPM_P2
2022/04/14 00:01:45;;;;;;;;;;;;;;;6.48;53.18;97088.08;106255;1268;2262759;-77
2022/04/14 00:04:15;;;;;;;;;;;;;;;6.44;53.68;97085.89;107821;1268;54733;-78
2022/04/14 00:06:44;;;;;;;;;;;;;;;6.41;53.56;97081.15;107771;1268;83529;-77
2022/04/14 00:09:14;;;;;;;;;;;;;;;6.40;53.74;97081.77;107944;1268;40069;-77
2022/04/14 00:11:43;;;;;;;;;;;;;;;6.45;53.66;97082.27;107817;1268;84047;-77
2022/04/14 00:14:12;;;;;;;;;;;;;;;6.52;53.31;97081.97;107854;1268;81056;-77
2022/04/14 00:16:41;;;;;;;;;;;;;;;6.61;53.08;97078.39;107796;1268;123761;-77
2022/04/14 00:19:10;;;;;;;;;;;;;;;6.67;53.07;97078.45;107867;1267;38672;-77
2022/04/14 00:21:40;;;;;;;;;;;;;;;6.68;53.15;97078.62;107802;1268;88112;-76
2022/04/14 00:24:09;;;;;;;;;;;;;;;6.61;53.13;97076.77;107814;1267;49676;-77
2022/04/14 00:26:38;;;;;;;;;;;;;;;6.51;53.03;97073.69;107893;1267;41133;-77
2022/04/14 00:29:07;;;;;;;;;;;;;;;6.55;53.71;97072.42;107892;1266;40413;-76
2022/04/14 00:31:36;;;;;;;;;;;;;;;6.67;53.45;97070.45;107829;1268;43170;-77
2022/04/14 00:34:05;;;;;;;;;;;;;;;6.70;53.24;97067.99;107855;1268;46888;-77
2022/04/14 00:36:37;;;;;;;;;;;;;;;6.68;53.22;97067.14;107848;1268;58335;-76
2022/04/14 00:39:06;;;;;;;;;;;;;;;6.62;53.60;97073.10;107919;1267;56221;-77
2022/04/14 00:41:35;;;;;;;;;;;;;;;6.64;53.71;97070.17;107919;1267;46455;-76
2022/04/14 00:44:05;;;;;;;;;;;;;;;6.81;53.46;97074.95;107937;1268;69549;-76
2022/04/14 00:46:35;;;;;;;;;;;;;;;6.95;53.16;97071.98;107812;1268;56107;-75
2022/04/14 00:49:04;;;;;;;;;;;;;;;7.02;52.84;97072.17;107924;1268;45163;-78
2022/04/14 00:51:33;;;;;;;;;;;;;;;7.07;52.77;97076.80;106474;1268;2059962;-78
2022/04/14 00:54:03;;;;;;;;;;;;;;;7.07;52.86;97071.42;107999;1267;39069;-78
2022/04/14 00:56:32;;;;;;;;;;;;;;;7.01;52.93;97068.63;107949;1268;37741;-77
2022/04/14 00:59:01;;;;;;;;;;;;;;;6.94;52.84;97069.13;107912;1268;36188;-77
2022/04/14 01:01:30;;;;;;;;;;;;;;;6.85;53.26;97070.21;107758;1268;38709;-77
2022/04/14 01:04:00;;;;;;;;;;;;;;;6.79;53.32;97071.14;107886;1267;80195;-77
2022/04/14 01:06:29;;;;;;;;;;;;;;;6.79;53.26;97066.77;107791;1267;76770;-77
2022/04/14 01:09:19;;;;;;;;;;;;;;;6.83;53.30;97061.71;107722;1268;74479;-77
2022/04/14 01:11:48;;;;;;;;;;;;;;;6.86;53.74;97063.21;107819;1268;84644;-77
2022/04/14 01:14:25;;;;;;;;;;;;;;;6.86;53.80;97066.59;107873;1268;35503;-77
2022/04/14 01:16:55;;;;;;;;;;;;;;;6.83;53.80;97068.98;107711;1268;45236;-76
2022/04/14 01:19:27;;;;;;;;;;;;;;;6.88;53.73;97064.80;107694;1268;45898;-76
2022/04/14 01:22:01;;;;;;;;;;;;;;;6.89;53.46;97066.95;107643;1268;51733;-77
2022/04/14 01:24:31;;;;;;;;;;;;;;;6.90;53.64;97069.91;107801;1268;48935;-77
2022/04/14 01:27:00;;;;;;;;;;;;;;;6.88;53.58;97075.41;107679;1268;48261;-77
2022/04/14 01:29:29;;;;;;;;;;;;;;;6.88;53.69;97073.84;107700;1268;45498;-77
2022/04/14 01:32:00;;;;;;;;;;;;;;;6.93;53.58;97069.86;107685;1268;43421;-77
2022/04/14 01:34:30;;;;;;;;;;;;;;;7.00;53.46;97070.89;107720;1268;50317;-76
2022/04/14 01:37:01;;;;;;;;;;;;;;;7.02;53.27;97070.17;107729;1268;60166;-77
2022/04/14 01:39:30;;;;;;;;;;;;;;;6.97;53.43;97066.47;107719;1268;45800;-76
2022/04/14 01:41:59;;;;;;;;;;;;;;;6.92;53.48;97063.89;107790;1268;56701;-76
2022/04/14 01:44:28;;;;;;;;;;;;;;;6.88;53.50;97058.34;107695;1268;45753;-77
2022/04/14 01:46:58;;;;;;;;;;;;;;;6.85;53.50;97059.15;107746;1268;34115;-77
2022/04/14 01:49:27;;;;;;;;;;;;;;;6.89;53.60;97052.04;107722;1268;51123;-76
2022/04/14 01:51:56;;;;;;;;;;;;;;;7.04;53.43;97057.45;107741;1268;36403;-77
2022/04/14 01:54:25;;;;;;;;;;;;;;;7.21;52.91;97054.13;107777;1268;34064;-76
2022/04/14 01:56:55;;;;;;;;;;;;;;;7.45;52.61;97055.20;107634;1268;45875;-77
2022/04/14 01:59:24;;;;;;;;;;;;;;;7.55;52.34;97051.20;107618;1268;38085;-76
2022/04/14 02:01:53;;;;;;;;;;;;;;;7.72;51.76;97054.59;107797;1268;42065;-77
2022/04/14 02:04:23;;;;;;;;;;;;;;;7.89;51.35;97056.92;107730;1268;38339;-77
2022/04/14 02:06:52;;;;;;;;;;;;;;;7.97;51.26;97052.40;107812;1268;38456;-77
2022/04/14 02:09:21;;;;;;;;;;;;;;;7.97;51.00;97047.02;107766;1268;46879;-76
2022/04/14 02:11:50;;;;;;;;;;;;;;;8.01;50.92;97049.42;107782;1267;45976;-76
2022/04/14 02:14:20;;;;;;;;;;;;;;;8.02;50.87;97044.48;107725;1268;49573;-77
2022/04/14 02:16:49;;;;;;;;;;;;;;;8.01;50.83;97048.64;107829;1268;33080;-77
2022/04/14 02:19:18;;;;;;;;;;;;;;;7.96;50.75;97045.21;107811;1267;45283;-77
2022/04/14 02:21:47;;;;;;;;;;;;;;;7.93;50.78;97044.35;107802;1268;52355;-77
2022/04/14 02:24:16;;;;;;;;;;;;;;;7.92;50.67;97043.77;107731;1268;52825;-76
2022/04/14 02:26:45;;;;;;;;;;;;;;;7.96;50.68;97035.83;107749;1268;50149;-76
2022/04/14 02:29:15;;;;;;;;;;;;;;;8.06;50.30;97034.69;107770;1267;36195;-76
2022/04/14 02:31:44;;;;;;;;;;;;;;;8.21;50.10;97034.39;107616;1268;70022;-77
2022/04/14 02:34:13;;;;;;;;;;;;;;;8.34;49.55;97029.86;107759;1268;49857;-76
2022/04/14 02:36:42;;;;;;;;;;;;;;;8.47;49.52;97034.04;107603;1270;51872;-76
2022/04/14 02:39:13;;;;;;;;;;;;;;;8.43;49.43;97031.37;106371;1269;1814768;-76
2022/04/14 02:41:42;;;;;;;;;;;;;;;8.39;49.57;97029.59;107709;1268;41890;-76
2022/04/14 02:44:11;;;;;;;;;;;;;;;8.41;49.70;97034.14;107691;1268;70665;-76
2022/04/14 02:46:40;;;;;;;;;;;;;;;8.43;49.61;97035.05;107740;1268;36319;-77
2022/04/14 02:49:09;;;;;;;;;;;;;;;8.39;49.62;97032.39;107700;1268;42624;-76
2022/04/14 02:51:39;;;;;;;;;;;;;;;8.29;49.81;97039.48;107781;1268;44983;-76
2022/04/14 02:54:08;;;;;;;;;;;;;;;8.20;49.89;97038.83;107741;1268;57530;-76
2022/04/14 02:56:37;;;;;;;;;;;;;;;8.32;49.75;97036.56;107777;1268;53185;-76
2022/04/14 02:59:06;;;;;;;;;;;;;;;8.39;49.62;97040.58;107813;1268;30073;-76
2022/04/14 03:01:35;;;;;;;;;;;;;;;8.31;49.85;97037.85;107776;1268;48232;-76
2022/04/14 03:04:04;;;;;;;;;;;;;;;8.19;50.13;97039.40;107805;1268;52043;-77
2022/04/14 03:06:33;;;;;;;;;;;;;;;8.11;50.05;97045.34;107799;1268;42685;-77
2022/04/14 03:09:03;;;;;;;;;;;;;;;8.13;50.33;97044.67;107838;1268;62691;-77
2022/04/14 03:11:32;;;;;;;;;;;;;;;8.07;50.32;97047.86;107759;1268;44088;-76
2022/04/14 03:14:01;;;;;;;;;;;;;;;8.04;50.27;97048.83;107832;1267;56059;-76
2022/04/14 03:16:31;;;;;;;;;;;;;;;8.03;50.39;97050.73;107828;1268;47721;-76
2022/04/14 03:19:00;;;;;;;;;;;;;;;8.03;50.44;97050.67;107731;1267;37246;-77
2022/04/14 03:21:29;;;;;;;;;;;;;;;8.01;50.51;97050.80;107815;1268;44870;-76
2022/04/14 03:23:58;;;;;;;;;;;;;;;8.12;50.24;97047.84;107714;1268;48266;-76
2022/04/14 03:26:27;;;;;;;;;;;;;;;8.35;49.59;97046.66;107762;1265;46171;-76
2022/04/14 03:28:56;;;;;;;;;;;;;;;8.43;49.42;97046.61;107638;1268;46642;-76
2022/04/14 03:31:25;;;;;;;;;;;;;;;8.39;49.54;97046.44;107691;1268;43201;-76
2022/04/14 03:33:55;;;;;;;;;;;;;;;8.31;49.48;97046.62;107695;1268;47474;-76
2022/04/14 03:36:24;;;;;;;;;;;;;;;8.28;49.60;97049.23;107701;1268;42376;-76
2022/04/14 03:38:53;;;;;;;;;;;;;;;8.25;49.60;97043.25;107701;1268;48243;-76
2022/04/14 03:41:24;;;;;;;;;;;;;;;8.29;49.28;97049.72;107720;1268;41818;-77
2022/04/14 03:43:53;;;;;;;;;;;;;;;8.35;49.20;97050.32;107846;1267;34825;-77
2022/04/14 03:46:23;;;;;;;;;;;;;;;8.36;49.20;97049.39;107699;1268;50970;-76
2022/04/14 03:48:54;;;;;;;;;;;;;;;8.38;49.11;97047.86;107733;1268;41775;-76
2022/04/14 03:51:23;;;;;;;;;;;;;;;8.38;49.18;97052.72;107787;1267;39404;-77
2022/04/14 03:53:53;;;;;;;;;;;;;;;8.35;49.15;97053.97;107770;1268;53700;-76
2022/04/14 03:56:22;;;;;;;;;;;;;;;8.35;49.05;97059.00;107583;1269;65734;-76
2022/04/14 03:58:51;;;;;;;;;;;;;;;8.34;49.16;97060.92;107631;1268;50633;-76
2022/04/14 04:01:20;;;;;;;;;;;;;;;8.29;49.30;97061.70;107742;1268;43772;-76
2022/04/14 04:03:49;;;;;;;;;;;;;;;8.28;49.24;97063.29;107820;1267;43283;-76
2022/04/14 04:06:19;;;;;;;;;;;;;;;8.28;49.28;97062.02;107683;1268;50769;-76
2022/04/14 04:08:48;;;;;;;;;;;;;;;8.34;49.36;97064.26;107686;1268;49354;-77
2022/04/14 04:11:17;;;;;;;;;;;;;;;8.37;49.26;97061.45;107781;1267;46676;-76
2022/04/14 04:13:47;;;;;;;;;;;;;;;8.39;49.41;97064.77;107682;1268;52851;-77
2022/04/14 04:16:16;;;;;;;;;;;;;;;8.40;49.39;97064.83;107770;1268;63403;-77
2022/04/14 04:18:46;;;;;;;;;;;;;;;8.45;49.32;97066.73;107840;1268;51917;-77
2022/04/14 04:21:15;;;;;;;;;;;;;;;8.55;49.37;97065.64;107782;1268;45849;-78
2022/04/14 04:23:44;;;;;;;;;;;;;;;8.76;49.10;97062.18;107728;1268;52631;-77
2022/04/14 04:26:14;;;;;;;;;;;;;;;9.02;48.92;97069.64;107781;1268;32934;-77
2022/04/14 04:28:43;;;;;;;;;;;;;;;9.25;48.53;97069.53;107755;1267;44133;-77
2022/04/14 04:31:13;;;;;;;;;;;;;;;9.42;48.14;97072.52;107791;1268;49842;-77
2022/04/14 04:33:42;;;;;;;;;;;;;;;9.57;48.05;97072.46;107755;1268;43024;-77
2022/04/14 04:36:12;;;;;;;;;;;;;;;9.78;47.91;97071.99;107702;1268;45497;-77
2022/04/14 04:38:42;;;;;;;;;;;;;;;10.05;47.53;97074.06;107798;1267;35062;-78
2022/04/14 04:41:11;;;;;;;;;;;;;;;10.28;47.29;97072.61;107803;1268;44252;-78
2022/04/14 04:43:42;;;;;;;;;;;;;;;10.42;46.48;97071.31;107824;1267;36442;-77
2022/04/14 04:46:13;;;;;;;;;;;;;;;10.37;46.38;97071.30;107691;1268;38972;-77
2022/04/14 04:48:42;;;;;;;;;;;;;;;10.46;46.25;97069.67;107795;1268;38755;-77
2022/04/14 04:51:11;;;;;;;;;;;;;;;10.60;45.96;97069.96;107749;1268;48097;-76
2022/04/14 04:53:41;;;;;;;;;;;;;;;10.74;45.94;97069.85;107662;1268;54269;-78
2022/04/14 04:56:12;;;;;;;;;;;;;;;10.93;45.68;97066.16;107777;1268;42151;-77
2022/04/14 04:58:41;;;;;;;;;;;;;;;11.18;45.23;97059.73;107733;1268;39636;-76
2022/04/14 05:01:11;;;;;;;;;;;;;;;11.52;45.48;97065.48;107642;1270;51503;-76
2022/04/14 05:03:40;;;;;;;;;;;;;;;12.25;44.74;97065.02;107646;1268;64480;-75
2022/04/14 05:06:10;;;;;;;;;;;;;;;12.78;43.75;97064.27;107846;1268;31505;-77
2022/04/14 05:08:39;;;;;;;;;;;;;;;13.00;43.21;97066.23;107802;1268;55840;-78
2022/04/14 05:11:08;;;;;;;;;;;;;;;12.79;42.56;97064.25;107932;1268;47153;-78
2022/04/14 05:13:41;;;;;;;;;;;;;;;12.73;42.88;97069.31;107941;1268;49593;-80
2022/04/14 05:16:11;;;;;;;;;;;;;;;12.93;43.04;97074.18;107887;1268;50039;-78
2022/04/14 05:18:40;;;;;;;;;;;;;;;13.26;42.47;97071.62;107749;1268;54120;-77
2022/04/14 05:21:10;;;;;;;;;;;;;;;13.39;41.83;97072.00;107776;1268;43555;-78
2022/04/14 05:23:39;;;;;;;;;;;;;;;13.32;41.87;97075.70;107951;1267;40290;-77
2022/04/14 05:26:09;;;;;;;;;;;;;;;13.50;41.71;97076.78;107942;1267;51240;-78
2022/04/14 05:28:38;;;;;;;;;;;;;;;13.93;41.41;97075.64;107745;1268;45118;-76
2022/04/14 05:31:08;;;;;;;;;;;;;;;14.15;40.65;97078.36;107743;1268;30376;-78
2022/04/14 05:33:37;;;;;;;;;;;;;;;14.33;40.42;97077.83;107666;1268;40621;-77
2022/04/14 05:36:07;;;;;;;;;;;;;;;14.35;39.94;97080.30;107673;1268;58995;-77
2022/04/14 05:38:37;;;;;;;;;;;;;;;14.44;39.91;97079.42;107550;1268;65059;-78
2022/04/14 05:41:08;;;;;;;;;;;;;;;14.66;39.62;97077.15;107512;1268;44491;-77
2022/04/14 05:43:38;;;;;;;;;;;;;;;14.90;39.05;97080.11;107937;1268;42813;-78
2022/04/14 05:46:07;;;;;;;;;;;;;;;14.97;38.50;97071.83;107616;1267;55730;-78
2022/04/14 05:48:37;;;;;;;;;;;;;;;14.99;38.46;97075.63;107698;1267;41977;-77
2022/04/14 05:51:08;;;;;;;;;;;;;;;15.20;38.20;97069.36;107645;1268;66476;-76
2022/04/14 05:53:38;;;;;;;;;;;;;;;15.45;38.41;97068.89;107519;1268;51880;-77
2022/04/14 05:56:08;;;;;;;;;;;;;;;15.92;37.78;97066.80;107728;1267;41738;-77
2022/04/14 05:58:38;;;;;;;;;;;;;;;16.20;36.71;97063.92;107607;1268;51935;-76
2022/04/14 06:01:08;;;;;;;;;;;;;;;16.21;36.68;97064.55;107635;1268;49967;-76
2022/04/14 06:03:38;;;;;;;;;;;;;;;16.62;36.94;97067.70;107604;1268;44641;-77
2022/04/14 06:07:05;;;;;;;;;;;;;;;17.79;36.37;97065.48;103817;1309;627189;-78
2022/04/14 06:09:35;;;;;;;;;;;;;;;18.54;34.92;97065.17;106665;1283;32548;-78
2022/04/14 06:12:05;;;;;;;;;;;;;;;18.75;34.81;97069.23;106813;1282;52391;-76
2022/04/14 06:14:34;;;;;;;;;;;;;;;19.50;34.41;97068.88;106879;1283;40104;-77
2022/04/14 06:17:04;;;;;;;;;;;;;;;20.25;33.66;97057.42;106728;1283;50409;-78
2022/04/14 06:19:34;;;;;;;;;;;;;;;20.65;32.64;97061.17;106439;1280;295148;-77
2022/04/14 06:22:03;;;;;;;;;;;;;;;20.46;32.14;97061.12;106970;1280;58522;-78
2022/04/14 06:24:33;;;;;;;;;;;;;;;20.30;31.84;97059.05;106921;1280;41513;-78
2022/04/14 06:27:02;;;;;;;;;;;;;;;20.44;32.26;97062.97;106909;1280;44209;-78
2022/04/14 06:29:31;;;;;;;;;;;;;;;20.39;31.56;97063.11;106502;1280;216000;-78
2022/04/14 06:32:01;;;;;;;;;;;;;;;19.56;31.97;97068.33;107193;1279;48118;-77
2022/04/14 06:34:30;;;;;;;;;;;;;;;19.12;32.44;97066.23;107213;1280;33724;-77
2022/04/14 06:37:00;;;;;;;;;;;;;;;18.11;32.97;97069.24;107235;1279;39077;-77
2022/04/14 06:39:29;;;;;;;;;;;;;;;17.01;33.94;97070.02;107086;1278;37356;-77
2022/04/14 06:41:59;;;;;;;;;;;;;;;16.08;35.10;97073.45;106916;1277;38783;-76
2022/04/14 06:44:28;;;;;;;;;;;;;;;15.44;36.03;97076.84;106949;1280;40767;-77
2022/04/14 06:46:57;;;;;;;;;;;;;;;15.06;36.85;97078.48;107065;1279;41848;-77
2022/04/14 06:49:27;;;;;;;;;;;;;;;15.05;37.15;97080.75;107125;1275;49917;-77
2022/04/14 06:51:56;;;;;;;;;;;;;;;15.00;37.44;97080.20;107188;1276;33340;-77
2022/04/14 06:54:25;;;;;;;;;;;;;;;15.54;37.72;97079.77;107167;1276;70348;-77
2022/04/14 06:56:54;;;;;;;;;;;;;;;16.43;36.63;97078.16;107170;1277;66765;-77
2022/04/14 06:59:24;;;;;;;;;;;;;;;17.11;35.70;97073.80;107328;1276;36871;-77
2022/04/14 07:01:53;;;;;;;;;;;;;;;18.10;35.15;97074.93;107152;1276;73745;-77
2022/04/14 07:04:22;;;;;;;;;;;;;;;18.94;33.64;97072.09;107313;1276;52554;-78
2022/04/14 07:06:51;;;;;;;;;;;;;;;19.83;33.09;97070.76;107200;1274;43153;-77
2022/04/14 07:09:21;;;;;;;;;;;;;;;20.55;31.53;97070.98;107130;1275;47251;-77
2022/04/14 07:11:50;;;;;;;;;;;;;;;20.84;31.14;97073.05;107364;1276;40683;-77
2022/04/14 07:14:19;;;;;;;;;;;;;;;21.39;31.17;97072.98;107170;1275;42399;-77
2022/04/14 07:16:49;;;;;;;;;;;;;;;21.62;29.21;97070.86;107230;1275;53026;-78
2022/04/14 07:19:19;;;;;;;;;;;;;;;21.26;29.72;97071.24;107215;1274;35931;-78
2022/04/14 07:21:48;;;;;;;;;;;;;;;21.31;30.30;97076.02;107192;1274;58980;-78
2022/04/14 07:24:17;;;;;;;;;;;;;;;21.47;30.02;97071.08;107158;1277;52430;-77
2022/04/14 07:26:47;;;;;;;;;;;;;;;21.34;29.39;97071.04;107049;1276;70639;-78
2022/04/14 07:29:16;;;;;;;;;;;;;;;21.34;29.85;97068.73;107337;1274;38369;-78
2022/04/14 07:31:46;;;;;;;;;;;;;;;21.47;29.66;97065.89;107313;1274;63563;-79
2022/04/14 07:34:15;;;;;;;;;;;;;;;21.21;29.48;97062.19;107276;1274;42297;-78
2022/04/14 07:36:45;;;;;;;;;;;;;;;20.94;29.50;97066.70;107239;1274;69131;-78
2022/04/14 07:39:14;;;;;;;;;;;;;;;21.36;29.48;97058.16;107228;1274;47097;-78
2022/04/14 07:41:44;;;;;;;;;;;;;;;21.90;29.38;97057.29;107270;1274;51732;-78
2022/04/14 07:44:13;;;;;;;;;;;;;;;22.96;29.28;97054.69;107143;1274;103462;-77
2022/04/14 07:46:44;;;;;;;;;;;;;;;24.65;28.27;97055.42;106993;1275;158262;-77
2022/04/14 07:49:15;;;;;;;;;;;;;;;25.96;27.47;97052.64;107899;1273;105893;-76
2022/04/14 07:51:44;;;;;;;;;;;;;;;27.07;25.80;97052.58;107254;1274;65870;-75
2022/04/14 07:54:14;;;;;;;;;;;;;;;27.37;24.48;97056.04;107169;1274;100137;-75
2022/04/14 07:56:44;;;;;;;;;;;;;;;27.35;24.04;97060.14;107054;1274;188323;-76
2022/04/14 07:59:14;;;;;;;;;;;;;;;27.72;23.33;97064.27;107219;1274;34788;-74
2022/04/14 08:01:43;;;;;;;;;;;;;;;28.38;23.26;97062.05;107261;1274;52118;-77
2022/04/14 08:04:14;;;;;;;;;;;;;;;29.14;22.54;97056.20;107120;1274;103662;-76
2022/04/14 08:06:43;;;;;;;;;;;;;;;28.61;21.88;97056.94;107170;1274;156403;-75
2022/04/14 08:09:14;;;;;;;;;;;;;;;27.88;22.30;97057.44;107094;1274;131084;-78
2022/04/14 08:11:44;;;;;;;;;;;;;;;27.65;22.71;97057.81;107329;1274;121695;-77
2022/04/14 08:14:13;;;;;;;;;;;;;;;28.24;22.88;97050.70;107413;1274;86261;-77
2022/04/14 08:16:45;;;;;;;;;;;;;;;29.08;22.32;97048.00;104009;1274;2413425;-78
2022/04/14 08:19:17;;;;;;;;;;;;;;;29.99;21.61;97044.78;107201;1273;216102;-80
2022/04/14 08:21:48;;;;;;;;;;;;;;;30.57;21.54;97043.25;107428;1274;101420;-78
2022/04/14 08:24:19;;;;;;;;;;;;;;;31.39;21.06;97043.22;107393;1273;176671;-78
2022/04/14 08:26:50;;;;;;;;;;;;;;;31.53;20.37;97038.63;107366;1274;96610;-75
2022/04/14 08:29:20;;;;;;;;;;;;;;;31.67;20.44;97040.39;107277;1273;271760;-75
2022/04/14 08:31:50;;;;;;;;;;;;;;;32.08;19.52;97038.73;107330;1274;98403;-76
2022/04/14 08:34:20;;;;;;;;;;;;;;;31.72;19.29;97033.14;107436;1274;115611;-76
2022/04/14 08:36:52;;;;;;;;;;;;;;;32.03;19.14;97034.70;107305;1274;103297;-74
2022/04/14 08:39:22;;;;;;;;;;;;;;;32.26;19.11;97033.98;107383;1274;98359;-78
2022/04/14 08:41:59;;;;;;;;;;;;;;;32.90;17.89;97033.08;107285;1274;169444;-77
2022/04/14 08:44:33;;;;;;;;;;;;;;;31.93;17.88;97033.17;107321;1274;196467;-77
2022/04/14 08:47:04;;;;;;;;;;;;;;;31.52;17.47;97029.95;107519;1274;101663;-77
2022/04/14 08:49:35;;;;;;;;;;;;;;;31.12;18.08;97030.09;107269;1274;101597;-77
2022/04/14 08:52:05;;;;;;;;;;;;;;;31.47;18.19;97028.19;107313;1274;94155;-75
2022/04/14 08:54:36;;;;;;;;;;;;;;;31.44;18.19;97029.00;107217;1274;181384;-76
2022/04/14 08:57:06;;;;;;;;;;;;;;;31.63;18.40;97029.45;107268;1274;181490;-77
2022/04/14 08:59:36;;;;;;;;;;;;;;;31.94;18.23;97029.23;103337;1274;5221937;-75
2022/04/14 09:02:07;;;;;;;;;;;;;;;31.36;18.10;97026.02;107306;1274;179016;-75
2022/04/14 09:04:40;;;;;;;;;;;;;;;31.34;17.68;97028.15;107091;1274;170830;-75
2022/04/14 09:07:11;;;;;;;;;;;;;;;31.29;18.40;97024.34;107271;1274;114392;-74
2022/04/14 09:09:41;;;;;;;;;;;;;;;31.69;17.79;97023.14;107326;1274;109657;-73
2022/04/14 09:12:11;;;;;;;;;;;;;;;31.00;18.17;97020.16;107252;1274;75789;-75
2022/04/14 09:14:40;;;;;;;;;;;;;;;30.85;19.00;97018.32;107320;1274;46926;-75
2022/04/14 09:17:10;;;;;;;;;;;;;;;30.81;18.06;97013.32;107230;1274;92988;-75
2022/04/14 09:19:41;;;;;;;;;;;;;;;30.15;18.13;97009.10;107200;1274;156080;-75
2022/04/14 09:22:12;;;;;;;;;;;;;;;28.05;18.45;97014.77;107280;1274;41566;-75
2022/04/14 09:24:45;;;;;;;;;;;;;;;26.07;19.71;97006.42;107229;1274;97580;-75
2022/04/14 09:27:28;;;;;;;;;;;;;;;24.56;20.90;97007.70;107217;1274;43440;-75
2022/04/14 09:29:59;;;;;;;;;;;;;;;23.99;22.32;97004.09;107252;1274;68065;-74
2022/04/14 09:32:33;;;;;;;;;;;;;;;23.99;22.55;97004.80;107339;1274;61170;-74
2022/04/14 09:35:03;;;;;;;;;;;;;;;23.72;22.08;96996.86;107249;1274;44925;-74
2022/04/14 09:37:33;;;;;;;;;;;;;;;23.02;22.43;96997.78;107269;1274;50968;-74
2022/04/14 09:40:05;;;;;;;;;;;;;;;22.62;23.09;96996.05;107250;1274;76316;-73
2022/04/14 09:42:35;;;;;;;;;;;;;;;22.46;23.18;96992.94;107273;1275;49771;-77
2022/04/14 09:45:20;;;;;;;;;;;;;;;22.56;23.02;96991.48;107280;1274;48431;-77
2022/04/14 09:47:50;;;;;;;;;;;;;;;22.44;22.59;96987.16;107300;1275;58698;-77
2022/04/14 09:50:39;;;;;;;;;;;;;;;22.00;23.17;96982.15;99064;1277;7450745;-76
2022/04/14 09:53:13;;;;;;;;;;;;;;;21.84;23.22;96976.83;102703;1274;3635375;-78
2022/04/14 09:55:46;;;;;;;;;;;;;;;21.77;23.39;96974.92;106181;1274;284513;-78
2022/04/14 09:58:16;;;;;;;;;;;;;;;21.99;23.90;96972.79;106364;1274;348012;-78
2022/04/14 10:00:46;;;;;;;;;;;;;;;21.98;23.29;96970.38;106755;1277;170191;-78
2022/04/14 10:03:17;;;;;;;;;;;;;;;21.59;23.59;96965.54;105776;1274;1274063;-76
2022/04/14 10:05:48;;;;;;;;;;;;;;;21.30;24.44;96963.76;107118;1274;92017;-73
2022/04/14 10:08:17;;;;;;;;;;;;;;;21.33;24.80;96959.90;107369;1274;48223;-73
2022/04/14 10:10:47;;;;;;;;;;;;;;;21.40;25.09;96958.95;107359;1274;55212;-74
2022/04/14 10:13:19;;;;;;;;;;;;;;;21.67;25.61;96954.52;107202;1274;124612;-74
2022/04/14 10:15:49;;;;;;;;;;;;;;;22.12;25.35;96952.17;105787;1274;2225886;-74
2022/04/14 10:18:19;;;;;;;;;;;;;;;22.48;25.02;96948.29;107314;1274;91874;-74
2022/04/14 10:20:48;;;;;;;;;;;;;;;22.75;24.29;96944.94;107337;1274;66006;-74
2022/04/14 10:23:18;;;;;;;;;;;;;;;22.80;23.93;96941.85;107388;1274;51401;-74
2022/04/14 10:25:47;;;;;;;;;;;;;;;22.73;24.06;96932.92;107446;1274;43995;-74
2022/04/14 10:28:17;;;;;;;;;;;;;;;22.71;24.13;96935.35;107372;1274;58871;-73
2022/04/14 10:30:47;;;;;;;;;;;;;;;22.90;24.59;96932.21;107378;1274;41632;-73
2022/04/14 10:33:17;;;;;;;;;;;;;;;22.98;25.07;96929.93;107222;1274;47355;-73
2022/04/14 10:35:47;;;;;;;;;;;;;;;22.37;24.02;96933.56;107262;1274;32323;-73
2022/04/14 10:38:19;;;;;;;;;;;;;;;21.79;25.38;96930.89;107383;1274;30388;-73
2022/04/14 10:40:52;;;;;;;;;;;;;;;21.37;26.69;96925.81;107181;1274;46905;-73
2022/04/14 10:43:23;;;;;;;;;;;;;;;21.26;26.39;96924.39;107513;1274;44869;-72
2022/04/14 10:45:54;;;;;;;;;;;;;;;21.21;26.77;96924.67;107431;1274;45531;-73
2022/04/14 10:48:30;;;;;;;;;;;;;;;21.19;26.39;96921.99;107408;1274;42498;-73
2022/04/14 10:51:20;;;;;;;;;;;;;;;21.11;26.37;96924.36;107573;1274;58204;-73
2022/04/14 10:53:56;;;;;;;;;;;;;;;21.24;26.67;96918.88;107522;1274;46505;-73
2022/04/14 10:56:45;;;;;;;;;;;;;;;21.37;26.95;96922.02;107543;1274;66265;-72
2022/04/14 10:59:15;;;;;;;;;;;;;;;21.18;26.36;96917.27;107733;1270;35369;-72
2022/04/14 11:01:55;;;;;;;;;;;;;;;21.06;27.10;96916.21;107643;1270;68392;-71
2022/04/14 11:04:26;;;;;;;;;;;;;;;21.15;26.88;96920.50;107593;1270;54691;-72
2022/04/14 11:06:57;;;;;;;;;;;;;;;21.32;26.79;96918.19;107723;1270;69654;-73
2022/04/14 11:09:49;;;;;;;;;;;;;;;21.62;26.37;96917.16;107717;1270;72911;-72
2022/04/14 11:12:20;;;;;;;;;;;;;;;21.84;25.75;96915.45;107655;1270;46100;-72
2022/04/14 11:14:50;;;;;;;;;;;;;;;21.75;25.70;96914.42;107712;1270;51969;-73
2022/04/14 11:17:57;;;;;;;;;;;;;;;21.60;25.46;96911.47;107594;1270;128114;-72
2022/04/14 11:20:45;;;;;;;;;;;;;;;21.43;25.42;96907.40;107415;1270;126838;-72
2022/04/14 11:23:20;;;;;;;;;;;;;;;21.44;26.00;96901.11;107572;1270;71468;-75
2022/04/14 11:25:51;;;;;;;;;;;;;;;21.67;26.25;96898.02;107520;1271;37159;-71
2022/04/14 11:28:21;;;;;;;;;;;;;;;21.95;25.90;96894.31;107440;1271;48019;-71
2022/04/14 11:30:51;;;;;;;;;;;;;;;22.12;25.89;96894.78;107471;1270;57726;-72
2022/04/14 11:33:27;;;;;;;;;;;;;;;22.04;24.83;96896.64;107555;1270;72117;-69
2022/04/14 11:36:06;;;;;;;;;;;;;;;21.82;25.16;96891.80;107518;1271;35456;-70
2022/04/14 11:38:59;;;;;;;;;;;;;;;21.79;26.07;96891.39;107664;1270;30327;-70
2022/04/14 11:41:33;;;;;;;;;;;;;;;21.91;25.70;96891.83;107596;1270;44911;-71
2022/04/14 11:44:03;;;;;;;;;;;;;;;21.77;25.69;96886.95;107632;1270;36517;-72
2022/04/14 11:46:33;;;;;;;;;;;;;;;21.70;26.30;96883.61;107606;1270;46139;-72
2022/04/14 11:49:02;;;;;;;;;;;;;;;21.63;25.75;96880.41;107607;1270;39195;-71
2022/04/14 11:51:31;;;;;;;;;;;;;;;21.43;26.05;96875.73;107562;1270;32198;-71
2022/04/14 11:54:00;;;;;;;;;;;;;;;21.29;26.06;96870.96;107547;1270;41762;-74
2022/04/14 11:56:30;;;;;;;;;;;;;;;21.26;26.03;96864.38;107671;1269;33529;-73
2022/04/14 11:58:59;;;;;;;;;;;;;;;21.23;26.11;96864.27;107581;1270;116755;-73
2022/04/14 12:01:28;;;;;;;;;;;;;;;21.06;25.99;96868.10;107644;1270;33944;-73
2022/04/14 12:03:58;;;;;;;;;;;;;;;20.97;26.12;96866.58;107491;1270;47934;-73
2022/04/14 12:06:35;;;;;;;;;;;;;;;21.01;26.03;96860.63;107712;1270;45588;-73
2022/04/14 12:09:04;;;;;;;;;;;;;;;21.02;25.94;96861.35;107575;1270;42439;-73
2022/04/14 12:11:33;;;;;;;;;;;;;;;21.03;26.28;96858.75;107550;1270;64801;-73
2022/04/14 12:14:03;;;;;;;;;;;;;;;21.15;26.71;96857.95;107576;1269;35370;-73
2022/04/14 12:16:33;;;;;;;;;;;;;;;21.42;27.83;96857.30;107611;1268;43246;-73
2022/04/14 12:19:05;;;;;;;;;;;;;;;21.83;28.57;96855.73;107625;1270;35295;-74
2022/04/14 12:21:34;;;;;;;;;;;;;;;22.22;28.67;96853.93;107619;1270;34203;-71
2022/04/14 12:24:04;;;;;;;;;;;;;;;22.57;28.10;96852.30;107436;1270;43874;-73
2022/04/14 12:26:35;;;;;;;;;;;;;;;22.74;27.80;96846.37;107531;1270;68264;-73
2022/04/14 12:29:07;;;;;;;;;;;;;;;22.86;27.38;96847.00;107619;1270;33761;-73
2022/04/14 12:31:37;;;;;;;;;;;;;;;22.85;27.29;96843.80;107666;1270;35937;-73
2022/04/14 12:34:10;;;;;;;;;;;;;;;22.88;28.05;96834.76;107531;1270;47721;-73
2022/04/14 12:36:39;;;;;;;;;;;;;;;23.14;27.51;96832.08;107622;1270;36321;-72
2022/04/14 12:39:19;;;;;;;;;;;;;;;23.26;26.87;96831.33;107527;1270;45135;-73
2022/04/14 12:41:49;;;;;;;;;;;;;;;23.39;27.08;96829.43;107657;1270;41754;-73
2022/04/14 12:44:20;;;;;;;;;;;;;;;23.57;27.44;96828.27;107652;1270;39474;-72
2022/04/14 12:46:52;;;;;;;;;;;;;;;23.77;27.72;96824.32;107830;1270;31245;-72
2022/04/14 12:49:31;;;;;;;;;;;;;;;23.92;26.57;96822.59;107494;1271;35268;-72
2022/04/14 12:52:03;;;;;;;;;;;;;;;23.95;26.12;96824.19;107637;1270;36839;-72
2022/04/14 12:54:34;;;;;;;;;;;;;;;23.83;25.82;96817.31;107571;1270;35885;-73
2022/04/14 12:57:06;;;;;;;;;;;;;;;23.70;25.48;96816.46;107650;1270;35019;-73